createdAt,value
2022-09-12T00:01:28.090Z,101128.19
2022-09-12T00:03:58.122Z,101136.13
2022-09-12T00:06:43.744Z,101134.41
2022-09-12T00:09:13.570Z,101138.66
2022-09-12T00:11:43.454Z,101125.66
2022-09-12T00:14:14.390Z,101124.84
2022-09-12T00:16:42.164Z,101114.38
2022-09-12T00:19:09.955Z,101116.69
2022-09-12T00:21:39.341Z,101116.88
2022-09-12T00:24:07.165Z,101115.41
2022-09-12T00:26:34.658Z,101124.44
2022-09-12T00:29:01.654Z,101122.13
2022-09-12T00:31:28.739Z,101116.69
2022-09-12T00:33:58.116Z,101110.19
2022-09-12T00:36:43.723Z,101115.63
2022-09-12T00:39:15.362Z,101112.66
2022-09-12T00:41:42.408Z,101106.34
2022-09-12T00:44:11.964Z,101107.41
2022-09-12T00:47:03.080Z,101108.44
2022-09-12T00:49:45.488Z,101095.44
2022-09-12T00:52:22.435Z,101107.13
2022-09-12T00:55:15.932Z,101103.78
2022-09-12T00:57:54.258Z,101099.59
2022-09-12T01:00:24.197Z,101102.50
2022-09-12T01:02:58.386Z,101100.81
2022-09-12T01:05:28.562Z,101096.16
2022-09-12T01:07:57.259Z,101102.84
2022-09-12T01:10:24.621Z,101095.69
2022-09-12T01:13:11.175Z,101089.44
2022-09-12T01:15:39.541Z,101089.00
2022-09-12T01:18:41.842Z,101094.81
2022-09-12T01:21:34.653Z,101086.06
2022-09-12T01:24:22.618Z,101090.22
2022-09-12T01:27:32.080Z,101093.13
2022-09-12T01:30:07.489Z,101094.59
2022-09-12T01:33:05.377Z,101090.22
2022-09-12T01:35:38.381Z,101081.00
2022-09-12T01:38:28.984Z,101083.47
2022-09-12T01:41:55.813Z,101080.59
2022-09-12T01:44:37.638Z,101073.06
2022-09-12T01:47:10.232Z,101079.16
2022-09-12T01:50:06.899Z,101084.72
2022-09-12T01:52:51.697Z,101080.13
2022-09-12T01:55:25.635Z,101075.31
2022-09-12T01:58:21.788Z,101072.44
2022-09-12T02:00:59.752Z,101070.34
2022-09-12T02:03:33.637Z,101066.16
2022-09-12T02:06:08.870Z,101071.00
2022-09-12T02:08:43.393Z,101064.50
2022-09-12T02:11:12.070Z,101065.97
2022-09-12T02:13:53.818Z,101066.34
2022-09-12T02:16:47.124Z,101052.75
2022-09-12T02:19:23.623Z,101048.50
2022-09-12T02:21:56.206Z,101052.94
2022-09-12T02:24:46.744Z,101059.66
2022-09-12T02:27:27.833Z,101054.22
2022-09-12T02:29:54.909Z,101050.22
2022-09-12T02:32:33.429Z,101055.47
2022-09-12T02:35:22.298Z,101058.78
2022-09-12T02:38:04.064Z,101051.66
2022-09-12T02:40:31.381Z,101053.53
2022-09-12T02:42:58.622Z,101048.50
2022-09-12T02:45:25.957Z,101039.88
2022-09-12T02:48:19.075Z,101040.31
2022-09-12T02:50:46.564Z,101045.56
2022-09-12T02:53:13.931Z,101036.53
2022-09-12T02:55:42.757Z,101037.78
2022-09-12T02:58:31.226Z,101035.69
2022-09-12T03:01:33.624Z,101033.94
2022-09-12T03:04:46.979Z,101039.59
2022-09-12T03:07:26.288Z,101037.25
2022-09-12T03:10:33.162Z,101023.94
2022-09-12T03:13:08.769Z,101026.88
2022-09-12T03:15:57.230Z,101037.66
2022-09-12T03:18:53.564Z,101029.22
2022-09-12T03:21:32.360Z,101037.34
2022-09-12T03:24:13.983Z,101004.44
2022-09-12T03:26:53.130Z,101045.72
2022-09-12T03:29:21.581Z,101038.41
2022-09-12T03:31:54.045Z,101038.63
2022-09-12T03:34:22.893Z,101042.13
2022-09-12T03:36:50.113Z,101039.66
2022-09-12T03:39:17.957Z,101040.47
2022-09-12T03:42:03.628Z,101030.84
2022-09-12T03:44:30.568Z,101037.38
2022-09-12T03:46:57.510Z,101044.44
2022-09-12T03:49:24.469Z,101048.81
2022-09-12T03:51:51.470Z,101042.31
2022-09-12T03:54:27.153Z,101041.09
2022-09-12T03:56:54.095Z,101037.72
2022-09-12T03:59:21.042Z,101025.00
2022-09-12T04:01:47.969Z,101033.47
2022-09-12T04:04:14.933Z,101045.63
2022-09-12T04:07:00.336Z,101026.38
2022-09-12T04:09:27.353Z,101033.34
2022-09-12T04:11:54.287Z,101032.53
2022-09-12T04:14:21.214Z,101030.06
2022-09-12T04:16:48.347Z,101026.69
2022-09-12T04:19:15.308Z,101021.72
2022-09-12T04:21:42.205Z,101020.88
2022-09-12T04:24:09.324Z,101031.34
2022-09-12T04:26:36.240Z,101027.34
2022-09-12T04:29:21.708Z,101016.03
2022-09-12T04:31:48.725Z,101015.22
2022-09-12T04:34:33.981Z,101018.34
2022-09-12T04:37:01.036Z,101012.28
2022-09-12T04:39:28.064Z,101017.31
2022-09-12T04:41:55.094Z,101008.91
2022-09-12T04:44:40.295Z,101007.06
2022-09-12T04:47:07.659Z,101015.41
2022-09-12T04:49:34.780Z,101009.56
2022-09-12T04:52:20.213Z,101006.25
2022-09-12T04:54:47.224Z,101005.59
2022-09-12T04:57:29.208Z,100995.59
2022-09-12T04:59:56.121Z,101005.84
2022-09-12T05:02:23.123Z,100997.06
2022-09-12T05:05:09.438Z,100994.97
2022-09-12T05:07:36.591Z,100989.97
2022-09-12T05:10:04.625Z,100992.03
2022-09-12T05:12:31.564Z,100982.00
2022-09-12T05:14:58.529Z,100995.81
2022-09-12T05:17:25.445Z,100994.97
2022-09-12T05:19:52.544Z,100988.72
2022-09-12T05:22:19.536Z,100995.22
2022-09-12T05:24:50.416Z,100993.97
2022-09-12T05:27:17.793Z,100987.09
2022-09-12T05:29:44.792Z,100993.19
2022-09-12T05:32:12.428Z,100997.41
2022-09-12T05:34:40.210Z,101004.31
2022-09-12T05:37:07.121Z,100997.03
2022-09-12T05:39:34.074Z,100999.34
2022-09-12T05:42:01.122Z,100990.97
2022-09-12T05:44:28.445Z,101006.06
2022-09-12T05:47:14.097Z,100995.22
2022-09-12T05:49:41.541Z,100992.72
2022-09-12T05:52:08.744Z,101006.56
2022-09-12T05:54:35.813Z,100999.88
2022-09-12T05:57:21.464Z,101008.63
2022-09-12T05:59:49.601Z,101005.09
2022-09-12T06:02:17.127Z,101009.94
2022-09-12T06:04:44.112Z,101007.66
2022-09-12T06:07:11.277Z,101012.06
2022-09-12T06:09:50.068Z,101009.97
2022-09-12T06:12:26.705Z,101012.72
2022-09-12T06:14:53.986Z,101012.06
2022-09-12T06:17:22.048Z,101020.13
2022-09-12T06:20:07.845Z,101015.09
2022-09-12T06:22:35.249Z,101012.16
2022-09-12T06:25:03.433Z,101020.34
2022-09-12T06:27:30.393Z,101017.59
2022-09-12T06:29:57.591Z,101015.50
2022-09-12T06:32:24.513Z,101004.63
2022-09-12T06:34:51.878Z,101011.97
2022-09-12T06:37:24.645Z,101010.09
2022-09-12T06:39:51.651Z,101011.38
2022-09-12T06:42:19.925Z,101010.31
2022-09-12T06:45:05.049Z,101010.94
2022-09-12T06:47:31.994Z,101019.34
2022-09-12T06:49:59.082Z,101022.06
2022-09-12T06:52:26.406Z,101029.00
2022-09-12T06:54:53.340Z,101019.97
2022-09-12T06:57:20.265Z,101022.69
2022-09-12T07:00:06.376Z,101018.72
2022-09-12T07:02:33.485Z,101012.19
2022-09-12T07:05:00.774Z,101014.50
2022-09-12T07:07:27.700Z,101012.41
2022-09-12T07:10:13.193Z,101010.53
2022-09-12T07:12:40.261Z,101010.94
2022-09-12T07:15:07.585Z,101020.34
2022-09-12T07:17:34.608Z,101015.56
2022-09-12T07:20:02.389Z,101023.53
2022-09-12T07:22:29.377Z,101023.94
2022-09-12T07:24:57.581Z,101019.72
2022-09-12T07:27:24.564Z,101019.50
2022-09-12T07:29:51.525Z,101012.81
2022-09-12T07:32:18.422Z,101013.44
2022-09-12T07:34:45.392Z,101015.13
2022-09-12T07:37:12.364Z,101010.91
2022-09-12T07:39:57.777Z,101011.09
2022-09-12T07:42:24.920Z,101011.50
2022-09-12T07:44:52.787Z,101007.09
2022-09-12T07:47:19.789Z,101019.44
2022-09-12T07:50:05.632Z,101017.09
2022-09-12T07:52:32.620Z,101020.00
2022-09-12T07:54:59.518Z,101019.16
2022-09-12T07:57:26.560Z,101021.41
2022-09-12T07:59:53.627Z,101025.78
2022-09-12T08:02:39.396Z,101016.50
2022-09-12T08:05:08.971Z,101019.63
2022-09-12T08:07:35.889Z,101023.41
2022-09-12T08:10:02.893Z,101021.72
2022-09-12T08:12:32.109Z,101022.31
2022-09-12T08:14:59.089Z,101020.16
2022-09-12T08:17:26.160Z,101019.88
2022-09-12T08:19:53.316Z,101018.38
2022-09-12T08:22:21.793Z,101022.78
2022-09-12T08:24:49.032Z,101019.19
2022-09-12T08:27:16.295Z,101018.91
2022-09-12T08:29:43.345Z,101023.94
2022-09-12T08:32:10.588Z,101023.28
2022-09-12T08:34:37.527Z,101021.19
2022-09-12T08:37:04.485Z,101023.72
2022-09-12T08:39:32.603Z,101014.31
2022-09-12T08:42:06.293Z,101026.25
2022-09-12T08:44:35.800Z,101024.34
2022-09-12T08:47:21.040Z,101022.25
2022-09-12T08:50:12.264Z,101020.34
2022-09-12T08:53:02.772Z,101018.69
2022-09-12T08:55:44.502Z,101016.78
2022-09-12T08:58:20.234Z,101022.84
2022-09-12T09:01:24.320Z,101019.91
2022-09-12T09:04:28.964Z,101016.50
2022-09-12T09:07:28.708Z,101008.22
2022-09-12T09:10:13.928Z,101005.25
2022-09-12T09:12:54.201Z,101006.47
2022-09-12T09:15:52.767Z,100999.88
2022-09-12T09:18:31.664Z,101000.66
2022-09-12T09:21:24.740Z,100998.94
2022-09-12T09:24:01.025Z,100992.94
2022-09-12T09:26:49.557Z,100992.03
2022-09-12T09:29:22.523Z,100988.78
2022-09-12T09:31:53.249Z,100985.13
2022-09-12T09:34:22.912Z,100977.44
2022-09-12T09:36:50.233Z,100980.56
2022-09-12T09:39:33.589Z,100974.88
2022-09-12T09:42:18.024Z,100978.81
2022-09-12T09:44:48.133Z,100972.19
2022-09-12T09:47:15.617Z,100965.25
2022-09-12T09:49:42.706Z,100964.91
2022-09-12T09:52:30.580Z,100959.16
2022-09-12T09:54:59.471Z,100962.03
2022-09-12T09:57:35.043Z,100959.44
2022-09-12T10:00:25.841Z,100954.59
2022-09-12T10:03:03.002Z,100946.09
2022-09-12T10:05:54.379Z,100948.38
2022-09-12T10:08:23.136Z,100947.91
2022-09-12T10:10:58.614Z,100951.63
2022-09-12T10:13:39.449Z,100945.09
2022-09-12T10:16:27.715Z,100939.63
2022-09-12T10:18:57.022Z,100938.44
2022-09-12T10:21:29.815Z,100944.16
2022-09-12T10:24:26.174Z,100934.19
2022-09-12T10:27:09.281Z,100921.44
2022-09-12T10:29:47.730Z,100923.81
2022-09-12T10:32:36.691Z,100925.00
2022-09-12T10:35:17.805Z,100923.59
2022-09-12T10:37:58.541Z,100919.31
2022-09-12T10:40:44.149Z,100917.16
2022-09-12T10:43:38.701Z,100918.84
2022-09-12T10:46:23.812Z,100911.53
2022-09-12T10:49:11.914Z,100916.09
2022-09-12T10:52:16.571Z,100902.72
2022-09-12T10:54:45.813Z,100900.53
2022-09-12T10:57:51.717Z,100897.78
2022-09-12T11:00:27.338Z,100904.94
2022-09-12T11:03:16.068Z,100892.75
2022-09-12T11:05:45.640Z,100883.69
2022-09-12T11:08:34.498Z,100885.53
2022-09-12T11:11:09.455Z,100880.75
2022-09-12T11:13:56.070Z,100879.31
2022-09-12T11:16:54.084Z,100883.56
2022-09-12T11:19:47.111Z,100863.59
2022-09-12T11:22:36.612Z,100867.53
2022-09-12T11:25:12.651Z,100864.38
2022-09-12T11:28:04.080Z,100862.22
2022-09-12T11:31:19.128Z,100849.16
2022-09-12T11:33:49.807Z,100849.22
2022-09-12T11:36:24.792Z,100849.47
2022-09-12T11:39:01.653Z,100854.91
2022-09-12T11:41:39.493Z,100840.41
2022-09-12T11:44:40.051Z,100849.75
2022-09-12T11:47:29.355Z,100846.75
2022-09-12T11:49:58.190Z,100851.41
2022-09-12T11:52:43.790Z,100843.94
2022-09-12T11:55:25.708Z,100832.53
2022-09-12T11:58:11.981Z,100837.00
2022-09-12T12:00:47.233Z,100834.00
2022-09-12T12:03:45.337Z,100831.00
2022-09-12T12:06:21.387Z,100834.66
2022-09-12T12:08:50.489Z,100831.28
2022-09-12T12:11:41.913Z,100830.19
2022-09-12T12:14:35.518Z,100823.75
2022-09-12T12:17:23.028Z,100826.34
2022-09-12T12:20:07.643Z,100821.59
2022-09-12T12:22:35.977Z,100821.09
2022-09-12T12:25:29.710Z,100820.63
2022-09-12T12:28:02.169Z,100821.72
2022-09-12T12:33:18.299Z,100822.84
2022-09-12T12:36:01.596Z,100817.50
2022-09-12T12:38:39.125Z,100800.06
2022-09-12T12:41:18.028Z,100800.59
2022-09-12T12:43:47.233Z,100800.63
2022-09-12T12:46:20.044Z,100793.25
2022-09-12T12:48:52.553Z,100785.34
2022-09-12T12:51:42.712Z,100781.22
2022-09-12T12:54:40.209Z,100767.44
2022-09-12T12:57:45.957Z,100765.81
2022-09-12T13:00:24.951Z,100770.38
2022-09-12T13:03:17.932Z,100769.78
2022-09-12T13:05:51.212Z,100765.50
2022-09-12T13:08:18.072Z,100755.31
2022-09-12T13:11:26.892Z,100752.06
2022-09-12T13:14:00.150Z,100752.16
2022-09-12T13:16:53.357Z,100756.38
2022-09-12T13:19:37.938Z,100743.22
2022-09-12T13:22:04.740Z,100751.06
2022-09-12T13:24:32.162Z,100747.81
2022-09-12T13:26:59.251Z,100739.38
2022-09-12T13:29:44.546Z,100740.22
2022-09-12T13:32:12.790Z,100741.53
2022-09-12T13:35:23.636Z,100734.13
2022-09-12T13:38:07.234Z,100742.16
2022-09-12T13:40:57.225Z,100741.13
2022-09-12T13:43:43.207Z,100745.59
2022-09-12T13:46:33.807Z,100741.19
2022-09-12T13:49:09.084Z,100730.19
2022-09-12T13:51:36.289Z,100739.56
2022-09-12T13:54:05.485Z,100731.94
2022-09-12T13:56:32.518Z,100730.91
2022-09-12T13:59:01.657Z,100719.88
2022-09-12T14:01:41.142Z,100729.00
2022-09-12T14:04:34.882Z,100724.91
2022-09-12T14:07:23.490Z,100718.31
2022-09-12T14:09:56.585Z,100711.69
2022-09-12T14:12:37.909Z,100722.72
2022-09-12T14:15:06.981Z,100722.22
2022-09-12T14:17:39.831Z,100715.03
2022-09-12T14:20:13.921Z,100709.53
2022-09-12T14:22:41.392Z,100700.66
2022-09-12T14:25:17.330Z,100696.84
2022-09-12T14:28:04.080Z,100695.19
2022-09-12T14:30:34.217Z,100692.47
2022-09-12T14:33:10.014Z,100685.00
2022-09-12T14:35:49.318Z,100674.72
2022-09-12T14:38:16.180Z,100679.44
2022-09-12T14:41:07.720Z,100678.59
2022-09-12T14:43:37.023Z,100669.78
2022-09-12T14:46:15.912Z,100671.16
2022-09-12T14:48:46.766Z,100664.22
2022-09-12T14:51:24.959Z,100662.00
2022-09-12T14:53:51.919Z,100650.44
2022-09-12T14:56:52.902Z,100657.59
2022-09-12T14:59:34.834Z,100654.28
2022-09-12T15:02:14.148Z,100657.59
2022-09-12T15:05:08.575Z,100648.16
2022-09-12T15:07:50.652Z,100658.94
2022-09-12T15:10:31.293Z,100653.09
2022-09-12T15:13:10.227Z,100648.13
2022-09-12T15:15:38.360Z,100644.84
2022-09-12T15:18:26.728Z,100650.91
2022-09-12T15:21:03.100Z,100647.59
2022-09-12T15:23:51.050Z,100649.50
2022-09-12T15:26:36.756Z,100642.03
2022-09-12T15:29:03.939Z,100649.19
2022-09-12T15:31:51.196Z,100648.06
2022-09-12T15:34:19.375Z,100639.00
2022-09-12T15:36:46.287Z,100636.22
2022-09-12T15:39:13.253Z,100631.50
2022-09-12T15:41:40.233Z,100630.72
2022-09-12T15:44:11.080Z,100623.56
2022-09-12T15:46:38.167Z,100623.03
2022-09-12T15:49:05.197Z,100620.28
2022-09-12T15:51:32.182Z,100619.16
2022-09-12T15:54:00.196Z,100621.34
2022-09-12T15:56:27.292Z,100622.72
2022-09-12T15:58:59.312Z,100614.97
2022-09-12T16:01:28.530Z,100613.88
2022-09-12T16:03:55.711Z,100612.22
2022-09-12T16:06:23.357Z,100606.72
2022-09-12T16:08:50.492Z,100613.31
2022-09-12T16:11:21.689Z,100613.03
2022-09-12T16:13:49.121Z,100605.31
2022-09-12T16:16:16.172Z,100586.78
2022-09-12T16:18:43.338Z,100602.25
2022-09-12T16:21:28.568Z,100598.41
2022-09-12T16:23:55.572Z,100591.75
2022-09-12T16:26:28.141Z,100596.69
2022-09-12T16:29:07.264Z,100597.66
2022-09-12T16:31:34.207Z,100587.69
2022-09-12T16:34:01.138Z,100571.69
2022-09-12T16:36:28.249Z,100565.38
2022-09-12T16:39:13.700Z,100565.13
2022-09-12T16:41:42.559Z,100560.75
2022-09-12T16:44:29.054Z,100567.94
2022-09-12T16:46:56.102Z,100574.59
2022-09-12T16:49:23.036Z,100570.16
2022-09-12T16:51:49.973Z,100574.59
2022-09-12T16:54:17.353Z,100575.97
2022-09-12T16:57:05.109Z,100566.03
2022-09-12T16:59:32.627Z,100555.28
2022-09-12T17:01:59.689Z,100558.03
2022-09-12T17:04:41.804Z,100572.88
2022-09-12T17:07:09.002Z,100561.81
2022-09-12T17:09:36.021Z,100554.94
2022-09-12T17:12:03.229Z,100557.97
2022-09-12T17:14:30.377Z,100550.50
2022-09-12T17:16:57.432Z,100548.59
2022-09-12T17:19:29.829Z,100551.28
2022-09-12T17:21:57.654Z,100543.81
2022-09-12T17:24:24.924Z,100559.81
2022-09-12T17:27:10.612Z,100561.69
2022-09-12T17:29:38.521Z,100555.59
2022-09-12T17:32:05.486Z,100547.81
2022-09-12T17:34:32.612Z,100542.75
2022-09-12T17:36:59.712Z,100550.22
2022-09-12T17:39:26.751Z,100552.06
2022-09-12T17:41:57.291Z,100545.97
2022-09-12T17:44:24.401Z,100537.38
2022-09-12T17:46:51.351Z,100550.28
2022-09-12T17:49:21.982Z,100539.44
2022-09-12T17:51:49.278Z,100551.41
2022-09-12T17:54:18.692Z,100561.00
2022-09-12T17:56:47.212Z,100556.53
2022-09-12T17:59:16.803Z,100551.47
2022-09-12T18:02:02.819Z,100542.94
2022-09-12T18:04:30.227Z,100539.81
2022-09-12T18:06:57.659Z,100550.31
2022-09-12T18:09:28.381Z,100549.13
2022-09-12T18:11:56.398Z,100556.47
2022-09-12T18:14:24.659Z,100558.34
2022-09-12T18:16:52.474Z,100551.69
2022-09-12T18:19:19.605Z,100551.06
2022-09-12T18:21:46.696Z,100558.44
2022-09-12T18:24:13.948Z,100552.84
2022-09-12T18:26:42.710Z,100540.09
2022-09-12T18:29:09.966Z,100548.91
2022-09-12T18:31:36.947Z,100537.00
2022-09-12T18:34:05.777Z,100534.22
2022-09-12T18:36:33.186Z,100536.38
2022-09-12T18:39:00.572Z,100534.13
2022-09-12T18:41:28.910Z,100543.22
2022-09-12T18:43:57.658Z,100541.22
2022-09-12T18:46:25.531Z,100548.06
2022-09-12T18:48:55.313Z,100551.66
2022-09-12T18:51:25.671Z,100555.72
2022-09-12T18:53:56.004Z,100560.66
2022-09-12T18:56:25.748Z,100544.94
2022-09-12T18:58:55.172Z,100544.84
2022-09-12T19:01:24.775Z,100540.94
2022-09-12T19:03:53.272Z,100536.69
2022-09-12T19:06:25.949Z,100533.13
2022-09-12T19:08:54.469Z,100544.66
2022-09-12T19:11:22.545Z,100541.63
2022-09-12T19:13:52.063Z,100538.53
2022-09-12T19:16:23.912Z,100539.38
2022-09-12T19:18:52.434Z,100543.13
2022-09-12T19:21:22.338Z,100543.38
2022-09-12T19:23:49.960Z,100529.50
2022-09-12T19:26:18.781Z,100544.63
2022-09-12T19:28:46.111Z,100544.56
2022-09-12T19:31:15.560Z,100539.56
2022-09-12T19:33:42.736Z,100534.59
2022-09-12T19:36:34.039Z,100537.56
2022-09-12T19:39:00.208Z,100532.03
2022-09-12T19:41:27.398Z,100535.16
2022-09-12T19:43:56.132Z,100522.94
2022-09-12T19:46:24.268Z,100533.53
2022-09-12T19:48:52.537Z,100535.09
2022-09-12T19:51:21.509Z,100532.00
2022-09-12T19:53:50.116Z,100536.09
2022-09-12T19:56:17.187Z,100541.00
2022-09-12T19:58:46.630Z,100525.03
2022-09-12T20:01:22.322Z,100525.53
2022-09-12T20:03:52.420Z,100533.19
2022-09-12T20:06:19.763Z,100537.50
2022-09-12T20:08:46.834Z,100529.19
2022-09-12T20:11:17.453Z,100526.81
2022-09-12T20:13:44.994Z,100548.16
2022-09-12T20:16:21.846Z,100542.84
2022-09-12T20:18:57.709Z,100551.41
2022-09-12T20:21:31.007Z,100549.06
2022-09-12T20:24:11.901Z,100543.59
2022-09-12T20:26:39.738Z,100551.69
2022-09-12T20:29:07.291Z,100548.41
2022-09-12T20:31:35.776Z,100546.47
2022-09-12T20:34:02.839Z,100537.91
2022-09-12T20:36:29.821Z,100541.75
2022-09-12T20:38:59.850Z,100551.03
2022-09-12T20:41:29.126Z,100549.97
2022-09-12T20:43:56.938Z,100540.56
2022-09-12T20:46:25.360Z,100527.84
2022-09-12T20:48:52.769Z,100530.25
2022-09-12T20:51:21.454Z,100526.91
2022-09-12T20:53:52.909Z,100525.72
2022-09-12T20:56:20.373Z,100532.06
2022-09-12T20:58:47.304Z,100530.97
2022-09-12T21:01:15.798Z,100534.78
2022-09-12T21:03:44.145Z,100540.28
2022-09-12T21:06:12.630Z,100533.13
2022-09-12T21:08:40.125Z,100527.91
2022-09-12T21:11:07.185Z,100527.78
2022-09-12T21:13:34.252Z,100517.56
2022-09-12T21:16:10.266Z,100521.38
2022-09-12T21:18:37.961Z,100525.69
2022-09-12T21:21:05.463Z,100525.09
2022-09-12T21:23:33.449Z,100514.78
2022-09-12T21:26:01.326Z,100504.88
2022-09-12T21:28:28.716Z,100501.81
2022-09-12T21:30:55.926Z,100488.72
2022-09-12T21:33:23.477Z,100490.84
2022-09-12T21:35:50.773Z,100499.69
2022-09-12T21:38:19.150Z,100496.66
2022-09-12T21:40:46.987Z,100497.50
2022-09-12T21:43:14.689Z,100499.53
2022-09-12T21:45:41.721Z,100499.41
2022-09-12T21:48:08.773Z,100503.59
2022-09-12T21:50:36.871Z,100505.47
2022-09-12T21:53:03.805Z,100494.53
2022-09-12T21:55:31.069Z,100497.25
2022-09-12T21:57:58.048Z,100499.41
2022-09-12T22:00:25.102Z,100497.41
2022-09-12T22:02:53.114Z,100502.53
2022-09-12T22:05:21.202Z,100500.28
2022-09-12T22:07:48.196Z,100494.09
2022-09-12T22:10:15.189Z,100483.16
2022-09-12T22:12:46.212Z,100489.97
2022-09-12T22:15:39.031Z,100489.72
2022-09-12T22:18:00.653Z,100501.16
2022-09-12T22:20:27.668Z,100501.88
2022-09-12T22:23:13.620Z,100501.38
2022-09-12T22:25:40.769Z,100501.03
2022-09-12T22:28:07.737Z,100486.16
2022-09-12T22:30:35.309Z,100491.63
2022-09-12T22:33:02.361Z,100488.56
2022-09-12T22:35:29.312Z,100492.81
2022-09-12T22:37:56.317Z,100499.16
2022-09-12T22:40:23.321Z,100490.69
2022-09-12T22:42:52.382Z,100496.88
2022-09-12T22:45:19.875Z,100505.00
2022-09-12T22:47:47.053Z,100515.22
2022-09-12T22:50:14.313Z,100515.69
2022-09-12T22:52:41.613Z,100509.88
2022-09-12T22:55:08.777Z,100513.91
2022-09-12T22:57:35.714Z,100512.28
2022-09-12T23:00:10.345Z,100515.09
2022-09-12T23:02:38.006Z,100509.03
2022-09-12T23:05:06.006Z,100504.78
2022-09-12T23:07:33.411Z,100515.47
2022-09-12T23:10:00.986Z,100524.25
2022-09-12T23:12:27.977Z,100521.66
2022-09-12T23:14:54.928Z,100509.53
2022-09-12T23:17:21.856Z,100515.09
2022-09-12T23:19:48.773Z,100507.50
2022-09-12T23:22:15.677Z,100511.06
2022-09-12T23:24:42.594Z,100508.78
2022-09-12T23:27:09.565Z,100505.06
2022-09-12T23:29:36.478Z,100509.50
2022-09-12T23:32:04.523Z,100492.69
2022-09-12T23:34:31.705Z,100486.66
2022-09-12T23:36:58.804Z,100487.25
2022-09-12T23:39:25.784Z,100485.59
2022-09-12T23:41:52.797Z,100494.88
2022-09-12T23:44:19.768Z,100499.56
2022-09-12T23:46:46.642Z,100496.50
2022-09-12T23:49:13.543Z,100487.00
2022-09-12T23:51:40.514Z,100490.56
2022-09-12T23:54:07.435Z,100487.59
2022-09-12T23:56:34.425Z,100468.47
2022-09-12T23:59:01.384Z,100470.00
